createdAt,value
2023-05-07T00:00:13.325Z,10.80
2023-05-07T00:02:41.390Z,6.65
2023-05-07T00:05:09.297Z,9.00
2023-05-07T00:07:36.868Z,6.30
2023-05-07T00:10:06.444Z,8.77
2023-05-07T00:12:38.584Z,10.27
2023-05-07T00:17:34.534Z,9.48
2023-05-07T00:20:01.660Z,7.28
2023-05-07T00:22:29.554Z,10.80
2023-05-07T00:24:56.722Z,8.10
2023-05-07T00:27:23.999Z,8.73
2023-05-07T00:29:51.227Z,8.43
2023-05-07T00:32:19.014Z,8.15
2023-05-07T00:34:46.051Z,7.68
2023-05-07T00:37:13.124Z,5.82
2023-05-07T00:39:40.122Z,7.03
2023-05-07T00:42:07.038Z,10.05
2023-05-07T00:44:35.712Z,9.48
2023-05-07T00:47:05.848Z,7.90
2023-05-07T00:49:53.430Z,9.30
2023-05-07T00:52:22.069Z,10.70
2023-05-07T00:54:49.387Z,9.50
2023-05-07T00:57:16.956Z,10.93
2023-05-07T00:59:44.067Z,10.00
2023-05-07T01:02:13.465Z,10.18
2023-05-07T01:04:41.589Z,10.70
2023-05-07T01:07:09.532Z,11.80
2023-05-07T01:09:37.765Z,8.45
2023-05-07T01:12:05.601Z,8.93
2023-05-07T01:14:34.197Z,7.90
2023-05-07T01:17:02.346Z,8.48
2023-05-07T01:19:31.389Z,7.22
2023-05-07T01:22:05.872Z,9.95
2023-05-07T01:24:39.764Z,9.38
2023-05-07T01:27:08.299Z,11.25
2023-05-07T01:29:37.313Z,9.50
2023-05-07T01:32:06.661Z,6.93
2023-05-07T01:34:37.188Z,10.02
2023-05-07T01:37:04.494Z,9.18
2023-05-07T01:39:33.219Z,10.55
2023-05-07T01:42:01.143Z,8.93
2023-05-07T01:44:29.131Z,8.55
2023-05-07T01:46:57.771Z,13.32
2023-05-07T01:49:24.755Z,10.15
2023-05-07T01:51:52.427Z,7.80
2023-05-07T01:54:19.538Z,7.88
2023-05-07T01:56:49.115Z,10.20
2023-05-07T01:59:16.444Z,9.25
2023-05-07T02:01:43.475Z,10.27
2023-05-07T02:04:11.554Z,11.13
2023-05-07T02:06:39.440Z,10.07
2023-05-07T02:09:09.976Z,8.38
2023-05-07T02:11:38.468Z,7.57
2023-05-07T02:14:06.508Z,9.60
2023-05-07T02:16:33.834Z,10.93
2023-05-07T02:19:01.067Z,10.55
2023-05-07T02:21:29.485Z,11.32
2023-05-07T02:23:58.146Z,10.05
2023-05-07T02:26:25.149Z,12.18
2023-05-07T02:28:52.971Z,9.13
2023-05-07T02:31:20.207Z,7.70
2023-05-07T02:33:47.318Z,7.43
2023-05-07T02:36:17.673Z,8.18
2023-05-07T02:38:51.475Z,8.77
2023-05-07T02:41:19.805Z,12.30
2023-05-07T02:43:46.844Z,12.35
2023-05-07T02:46:14.421Z,11.95
2023-05-07T02:48:46.878Z,9.57
2023-05-07T02:51:15.613Z,9.00
2023-05-07T02:53:43.788Z,12.35
2023-05-07T02:56:10.831Z,11.70
2023-05-07T02:58:37.840Z,13.45
2023-05-07T03:01:05.837Z,12.65
2023-05-07T03:03:41.290Z,11.13
2023-05-07T03:06:09.750Z,14.60
2023-05-07T03:08:37.698Z,10.98
2023-05-07T03:11:04.886Z,13.27
2023-05-07T03:13:31.900Z,10.82
2023-05-07T03:16:01.027Z,11.73
2023-05-07T03:18:28.085Z,11.35
2023-05-07T03:20:56.717Z,10.32
2023-05-07T03:23:24.891Z,10.20
2023-05-07T03:25:52.389Z,9.77
2023-05-07T03:28:19.613Z,14.07
2023-05-07T03:30:52.404Z,9.98
2023-05-07T03:33:19.390Z,9.93
2023-05-07T03:35:49.135Z,10.88
2023-05-07T03:38:20.857Z,12.73
2023-05-07T03:40:51.546Z,11.73
2023-05-07T03:43:19.139Z,12.07
2023-05-07T03:48:22.841Z,11.00
2023-05-07T03:50:53.622Z,10.20
2023-05-07T03:53:23.358Z,13.27
2023-05-07T03:55:50.882Z,11.75
2023-05-07T03:58:21.411Z,10.18
2023-05-07T04:00:50.182Z,10.27
2023-05-07T04:03:27.294Z,10.73
2023-05-07T04:06:00.558Z,12.27
2023-05-07T04:08:31.808Z,10.40
2023-05-07T04:11:01.207Z,13.37
2023-05-07T04:16:03.264Z,12.18
2023-05-07T04:18:30.618Z,14.60
2023-05-07T04:20:57.744Z,11.70
2023-05-07T04:23:24.731Z,13.07
2023-05-07T04:25:52.521Z,12.93
2023-05-07T04:28:27.809Z,10.20
2023-05-07T04:30:56.083Z,10.32
2023-05-07T04:33:23.263Z,18.83
2023-05-07T04:35:51.159Z,10.50
2023-05-07T04:38:19.443Z,9.95
2023-05-07T04:40:49.079Z,13.40
2023-05-07T04:43:22.467Z,12.85
2023-05-07T04:45:53.461Z,11.60
2023-05-07T04:48:23.177Z,11.70
2023-05-07T04:50:52.092Z,10.07
2023-05-07T04:53:21.060Z,9.68
2023-05-07T04:55:49.181Z,11.98
2023-05-07T04:58:16.791Z,9.75
2023-05-07T05:00:47.764Z,9.93
2023-05-07T05:03:15.928Z,11.90
2023-05-07T05:05:42.996Z,9.25
2023-05-07T05:08:10.305Z,9.98
2023-05-07T05:10:39.845Z,11.48
2023-05-07T05:13:09.359Z,9.15
2023-05-07T05:15:36.734Z,15.98
2023-05-07T05:18:05.852Z,14.05
2023-05-07T05:20:33.395Z,11.38
2023-05-07T05:23:00.466Z,8.13
2023-05-07T05:25:27.437Z,9.27
2023-05-07T05:27:54.509Z,13.65
2023-05-07T05:30:23.235Z,10.40
2023-05-07T05:32:50.915Z,12.90
2023-05-07T05:35:18.003Z,9.10
2023-05-07T05:37:45.457Z,10.85
2023-05-07T05:40:14.106Z,7.75
2023-05-07T05:42:41.528Z,9.20
2023-05-07T05:45:10.600Z,10.30
2023-05-07T05:47:39.481Z,10.30
2023-05-07T05:50:08.674Z,9.45
2023-05-07T05:52:36.360Z,10.70
2023-05-07T05:55:04.048Z,8.82
2023-05-07T05:57:31.628Z,12.80
2023-05-07T05:59:58.733Z,9.38
2023-05-07T06:02:27.476Z,11.65
2023-05-07T06:04:56.793Z,16.33
2023-05-07T06:07:24.485Z,10.02
2023-05-07T06:09:53.170Z,8.13
2023-05-07T06:12:21.620Z,9.95
2023-05-07T06:14:50.234Z,11.27
2023-05-07T06:17:20.077Z,6.53
2023-05-07T06:19:49.129Z,7.13
2023-05-07T06:22:18.693Z,8.55
2023-05-07T06:24:45.948Z,10.27
2023-05-07T06:27:13.326Z,14.43
2023-05-07T06:29:41.426Z,8.73
2023-05-07T06:32:25.073Z,8.65
2023-05-07T06:34:53.126Z,6.75
2023-05-07T06:37:20.225Z,7.75
2023-05-07T06:40:02.044Z,10.38
2023-05-07T06:42:30.794Z,8.10
2023-05-07T06:45:04.916Z,9.25
2023-05-07T06:47:33.957Z,13.05
2023-05-07T06:50:02.196Z,5.68
2023-05-07T06:52:32.132Z,8.02
2023-05-07T06:55:00.486Z,6.78
2023-05-07T06:57:27.984Z,7.30
2023-05-07T07:05:53.136Z,9.05
2023-05-07T07:08:23.128Z,6.35
2023-05-07T07:10:52.213Z,7.78
2023-05-07T07:13:20.953Z,7.82
2023-05-07T07:15:49.651Z,8.00
2023-05-07T07:18:21.908Z,8.10
2023-05-07T07:20:50.275Z,7.35
2023-05-07T07:23:22.487Z,9.43
2023-05-07T07:25:49.888Z,9.85
2023-05-07T07:28:18.665Z,7.43
2023-05-07T07:30:49.122Z,6.03
2023-05-07T07:33:17.402Z,8.93
2023-05-07T07:35:44.817Z,12.50
2023-05-07T07:38:21.414Z,5.22
2023-05-07T07:40:49.340Z,8.52
2023-05-07T07:43:17.629Z,10.00
2023-05-07T07:45:47.865Z,8.68
2023-05-07T07:48:15.825Z,7.15
2023-05-07T07:50:52.312Z,10.48
2023-05-07T07:53:20.445Z,11.02
2023-05-07T07:55:47.634Z,8.65
2023-05-07T07:58:18.111Z,8.27
2023-05-07T08:00:45.453Z,7.32
2023-05-07T08:03:17.756Z,8.48
2023-05-07T08:05:52.218Z,5.82
2023-05-07T08:08:19.530Z,11.68
2023-05-07T08:10:48.293Z,10.82
2023-05-07T08:13:21.864Z,11.07
2023-05-07T08:15:51.919Z,10.75
2023-05-07T08:18:19.086Z,10.15
2023-05-07T08:20:48.507Z,9.68
2023-05-07T08:23:20.651Z,12.68
2023-05-07T08:25:48.886Z,8.52
2023-05-07T08:28:23.485Z,8.25
2023-05-07T08:30:50.662Z,9.40
2023-05-07T08:33:19.798Z,8.25
2023-05-07T08:35:49.996Z,7.88
2023-05-07T08:38:17.244Z,7.38
2023-05-07T08:40:45.909Z,7.63
2023-05-07T08:43:20.965Z,8.57
2023-05-07T08:45:54.451Z,10.75
2023-05-07T08:48:26.345Z,10.18
2023-05-07T08:51:01.109Z,8.63
2023-05-07T08:53:28.189Z,8.25
2023-05-07T08:55:56.033Z,7.32
2023-05-07T08:58:23.036Z,10.07
2023-05-07T09:00:55.146Z,10.45
2023-05-07T09:03:26.903Z,7.57
2023-05-07T09:08:28.115Z,9.15
2023-05-07T09:10:58.650Z,12.00
2023-05-07T09:13:26.304Z,8.80
2023-05-07T09:15:53.597Z,7.80
2023-05-07T09:18:21.326Z,7.63
2023-05-07T09:20:49.766Z,8.60
2023-05-07T09:23:20.677Z,8.55
2023-05-07T09:25:48.973Z,9.13
2023-05-07T09:28:38.793Z,10.75
2023-05-07T09:31:06.161Z,8.07
2023-05-07T09:33:33.661Z,6.78
2023-05-07T09:36:06.411Z,6.20
2023-05-07T09:38:35.155Z,8.95
2023-05-07T09:41:05.124Z,7.18
2023-05-07T09:43:36.129Z,7.68
2023-05-07T09:46:15.632Z,7.10
2023-05-07T09:48:50.311Z,9.27
2023-05-07T09:51:40.605Z,11.88
2023-05-07T09:54:10.644Z,8.00
2023-05-07T09:59:21.483Z,5.85
2023-05-07T10:01:52.847Z,8.88
2023-05-07T10:04:22.183Z,7.72
2023-05-07T10:06:51.638Z,11.45
2023-05-07T10:09:19.358Z,7.47
2023-05-07T10:11:47.531Z,7.95
2023-05-07T10:14:15.330Z,11.52
2023-05-07T10:16:44.838Z,9.15
2023-05-07T10:21:59.027Z,9.98
2023-05-07T10:24:32.714Z,6.13
2023-05-07T10:27:07.613Z,7.95
2023-05-07T10:29:54.882Z,9.07
2023-05-07T10:32:51.946Z,7.05
2023-05-07T10:35:33.944Z,9.10
2023-05-07T10:38:05.082Z,7.95
2023-05-07T10:40:36.099Z,7.05
2023-05-07T10:43:08.608Z,10.38
2023-05-07T10:46:11.769Z,15.20
2023-05-07T10:49:07.363Z,10.02
2023-05-07T10:52:17.713Z,10.10
2023-05-07T10:55:36.645Z,11.10
2023-05-07T11:03:13.984Z,14.50
2023-05-07T11:05:48.193Z,7.82
2023-05-07T11:08:24.054Z,14.95
2023-05-07T11:11:01.506Z,8.63
2023-05-07T11:13:54.663Z,8.35
2023-05-07T11:16:34.664Z,9.77
2023-05-07T11:19:16.260Z,14.20
2023-05-07T11:21:51.327Z,11.25
2023-05-07T11:24:27.781Z,10.23
2023-05-07T11:27:01.901Z,10.73
2023-05-07T11:29:33.631Z,9.35
2023-05-07T11:32:07.509Z,11.18
2023-05-07T11:34:45.638Z,10.32
2023-05-07T11:37:17.741Z,12.20
2023-05-07T11:44:07.883Z,9.82
2023-05-07T11:46:35.420Z,6.38
2023-05-07T11:49:02.795Z,8.32
2023-05-07T11:51:30.327Z,6.57
2023-05-07T11:53:57.215Z,12.25
2023-05-07T11:56:24.379Z,12.73
2023-05-07T11:58:53.277Z,5.30
2023-05-07T12:01:20.559Z,7.75
2023-05-07T12:03:48.781Z,8.32
2023-05-07T12:06:19.071Z,7.72
2023-05-07T12:08:48.336Z,6.07
2023-05-07T12:11:22.784Z,7.22
2023-05-07T12:13:52.288Z,6.60
2023-05-07T12:16:21.435Z,9.13
2023-05-07T12:18:48.776Z,8.35
2023-05-07T12:21:18.655Z,12.02
2023-05-07T12:23:46.371Z,8.52
2023-05-07T12:26:13.351Z,7.75
2023-05-07T12:28:41.018Z,6.65
2023-05-07T12:31:08.996Z,8.52
2023-05-07T12:33:37.232Z,6.40
2023-05-07T12:36:07.743Z,7.60
2023-05-07T12:38:38.232Z,3.55
2023-05-07T12:41:09.160Z,6.05
2023-05-07T12:43:36.311Z,8.25
2023-05-07T12:46:13.011Z,7.05
2023-05-07T12:48:44.951Z,7.75
2023-05-07T12:51:16.973Z,7.93
2023-05-07T12:53:44.467Z,11.85
2023-05-07T12:56:12.471Z,6.38
2023-05-07T12:58:39.591Z,6.80
2023-05-07T13:01:08.827Z,7.07
2023-05-07T13:03:37.589Z,4.88
2023-05-07T13:06:12.208Z,5.55
2023-05-07T13:08:44.256Z,4.85
2023-05-07T13:11:13.813Z,4.85
2023-05-07T13:13:42.451Z,5.95
2023-05-07T13:16:12.516Z,5.85
2023-05-07T13:18:41.438Z,6.90
2023-05-07T13:21:08.764Z,5.25
2023-05-07T13:23:36.008Z,8.07
2023-05-07T13:26:08.480Z,6.55
2023-05-07T13:28:43.042Z,7.80
2023-05-07T13:31:13.237Z,7.05
2023-05-07T13:33:40.439Z,7.40
2023-05-07T13:36:08.871Z,9.68
2023-05-07T13:38:36.235Z,6.07
2023-05-07T13:41:03.250Z,5.60
2023-05-07T13:43:30.366Z,5.70
2023-05-07T13:45:57.491Z,4.45
2023-05-07T13:48:24.517Z,6.18
2023-05-07T13:50:51.922Z,6.78
2023-05-07T13:53:19.373Z,6.78
2023-05-07T13:55:46.982Z,8.05
2023-05-07T13:58:14.913Z,6.68
2023-05-07T14:00:43.624Z,6.85
2023-05-07T14:03:11.518Z,4.30
2023-05-07T14:05:38.634Z,4.40
2023-05-07T14:08:06.985Z,3.83
2023-05-07T14:10:36.360Z,6.95
2023-05-07T14:13:04.653Z,5.88
2023-05-07T14:15:33.503Z,6.43
2023-05-07T14:18:01.851Z,3.83
2023-05-07T14:20:32.238Z,5.85
2023-05-07T14:22:59.326Z,4.72
2023-05-07T14:25:30.311Z,8.00
2023-05-07T14:27:57.498Z,5.38
2023-05-07T14:30:28.019Z,6.03
2023-05-07T14:32:56.475Z,5.97
2023-05-07T14:35:23.572Z,5.00
2023-05-07T14:37:51.618Z,4.35
2023-05-07T14:40:20.282Z,6.35
2023-05-07T14:42:47.828Z,5.43
2023-05-07T14:45:15.037Z,8.15
2023-05-07T14:47:44.010Z,4.03
2023-05-07T14:50:11.216Z,9.23
2023-05-07T14:52:41.055Z,9.80
2023-05-07T14:55:08.974Z,3.15
2023-05-07T14:57:36.902Z,3.38
2023-05-07T15:00:05.707Z,5.38
2023-05-07T15:02:33.124Z,4.63
2023-05-07T15:05:01.497Z,6.20
2023-05-07T15:07:28.593Z,6.45
2023-05-07T15:09:56.056Z,5.80
2023-05-07T15:12:23.086Z,5.65
2023-05-07T15:14:50.147Z,3.58
2023-05-07T15:17:18.711Z,4.30
2023-05-07T15:19:45.874Z,5.63
2023-05-07T15:22:13.369Z,5.28
2023-05-07T15:24:42.201Z,6.72
2023-05-07T15:27:09.204Z,3.78
2023-05-07T15:29:36.259Z,4.57
2023-05-07T15:52:23.664Z,4.95
2023-05-07T15:54:50.963Z,3.05
2023-05-07T15:57:17.936Z,5.13
2023-05-07T15:59:45.193Z,3.15
2023-05-07T16:02:12.562Z,4.43
2023-05-07T16:04:39.818Z,5.47
2023-05-07T16:07:09.458Z,2.28
2023-05-07T16:09:37.659Z,2.85
2023-05-07T16:12:05.050Z,2.78
2023-05-07T16:14:32.440Z,3.10
2023-05-07T16:16:59.418Z,3.78
2023-05-07T16:19:26.790Z,3.38
2023-05-07T16:21:54.267Z,5.18
2023-05-07T16:24:21.737Z,6.60
2023-05-07T16:26:50.339Z,2.55
2023-05-07T16:29:17.730Z,4.03
2023-05-07T16:31:44.794Z,2.67
2023-05-07T16:34:15.979Z,4.30
2023-05-07T16:36:43.267Z,3.43
2023-05-07T16:39:10.609Z,4.15
2023-05-07T16:41:38.635Z,3.42
2023-05-07T16:44:06.989Z,3.03
2023-05-07T16:46:34.361Z,6.57
2023-05-07T16:49:01.355Z,2.70
2023-05-07T16:51:29.403Z,4.70
2023-05-07T16:53:56.696Z,4.68
2023-05-07T16:56:23.834Z,2.78
2023-05-07T16:58:50.936Z,3.03
2023-05-07T17:01:19.073Z,3.30
2023-05-07T17:03:46.340Z,3.05
2023-05-07T17:06:15.363Z,3.33
2023-05-07T17:08:43.484Z,4.80
2023-05-07T17:11:11.132Z,3.03
2023-05-07T17:13:38.207Z,4.03
2023-05-07T17:16:06.845Z,2.75
2023-05-07T17:18:34.110Z,4.03
2023-05-07T17:21:02.052Z,3.88
2023-05-07T17:23:29.350Z,5.60
2023-05-07T17:25:56.335Z,2.72
2023-05-07T17:28:23.250Z,5.25
2023-05-07T17:30:50.454Z,6.63
2023-05-07T17:33:21.669Z,3.75
2023-05-07T17:35:50.553Z,3.45
2023-05-07T17:38:17.524Z,5.07
2023-05-07T17:40:44.812Z,5.35
2023-05-07T17:43:12.083Z,3.83
2023-05-07T17:45:39.291Z,3.70
2023-05-07T17:48:06.518Z,7.05
2023-05-07T17:50:33.776Z,4.38
2023-05-07T17:53:02.144Z,3.75
2023-05-07T17:55:30.779Z,5.70
2023-05-07T17:57:58.032Z,4.28
2023-05-07T18:00:25.080Z,3.88
2023-05-07T18:02:52.701Z,11.75
2023-05-07T18:05:20.266Z,4.63
2023-05-07T18:07:47.360Z,4.72
2023-05-07T18:10:14.809Z,4.93
2023-05-07T18:12:42.575Z,4.63
2023-05-07T18:15:11.399Z,5.50
2023-05-07T18:17:38.633Z,5.75
2023-05-07T18:20:08.807Z,4.55
2023-05-07T18:22:36.470Z,4.85
2023-05-07T18:25:04.080Z,4.57
2023-05-07T18:27:31.419Z,5.55
2023-05-07T18:29:58.510Z,4.50
2023-05-07T18:32:25.879Z,6.68
2023-05-07T18:34:55.322Z,5.95
2023-05-07T18:37:26.045Z,3.97
2023-05-07T18:39:53.832Z,3.47
2023-05-07T18:42:21.070Z,4.28
2023-05-07T18:44:48.162Z,5.68
2023-05-07T18:47:15.230Z,6.15
2023-05-07T18:49:42.409Z,6.13
2023-05-07T18:52:09.638Z,5.35
2023-05-07T18:54:36.621Z,6.78
2023-05-07T18:57:03.753Z,8.57
2023-05-07T18:59:31.059Z,3.35
2023-05-07T19:01:58.077Z,6.28
2023-05-07T19:04:25.540Z,4.95
2023-05-07T19:06:52.571Z,4.70
2023-05-07T19:09:19.648Z,3.30
2023-05-07T19:11:46.702Z,5.20
2023-05-07T19:14:13.718Z,4.82
2023-05-07T19:16:41.044Z,2.97
2023-05-07T19:19:08.042Z,2.38
2023-05-07T19:21:35.040Z,4.95
2023-05-07T19:24:02.102Z,5.10
2023-05-07T19:26:29.089Z,6.13
2023-05-07T19:29:12.444Z,7.25
2023-05-07T19:31:44.139Z,5.90
2023-05-07T19:34:13.202Z,9.98
2023-05-07T19:36:40.450Z,5.63
2023-05-07T19:39:08.029Z,6.60
2023-05-07T19:41:35.064Z,8.73
2023-05-07T19:44:02.336Z,4.40
2023-05-07T19:46:29.553Z,3.53
2023-05-07T19:48:56.518Z,6.03
2023-05-07T19:51:23.685Z,4.97
2023-05-07T19:53:51.489Z,4.43
2023-05-07T19:56:18.607Z,5.45
2023-05-07T19:58:46.080Z,7.78
2023-05-07T20:01:13.110Z,7.97
2023-05-07T20:03:40.168Z,7.75
2023-05-07T20:06:07.255Z,6.05
2023-05-07T20:08:34.225Z,9.25
2023-05-07T20:11:01.168Z,5.68
2023-05-07T20:13:28.612Z,4.72
2023-05-07T20:16:00.793Z,4.53
2023-05-07T20:20:56.140Z,4.30
2023-05-07T20:23:23.250Z,5.80
2023-05-07T20:25:50.524Z,6.00
2023-05-07T20:28:17.753Z,8.68
2023-05-07T20:30:44.698Z,4.50
2023-05-07T20:33:15.898Z,7.93
2023-05-07T20:35:42.913Z,5.38
2023-05-07T20:38:10.185Z,10.30
2023-05-07T20:40:39.117Z,5.70
2023-05-07T20:43:06.825Z,7.50
2023-05-07T20:45:34.896Z,5.35
2023-05-07T20:48:05.820Z,7.50
2023-05-07T20:50:37.720Z,5.70
2023-05-07T20:53:05.522Z,9.15
2023-05-07T20:55:32.539Z,8.48
2023-05-07T20:58:00.072Z,7.22
2023-05-07T21:00:27.443Z,8.02
2023-05-07T21:02:56.637Z,9.27
2023-05-07T21:05:23.912Z,9.57
2023-05-07T21:07:50.932Z,8.52
2023-05-07T21:10:17.900Z,8.02
2023-05-07T21:12:44.935Z,12.82
2023-05-07T21:15:11.905Z,9.88
2023-05-07T21:17:38.869Z,9.23
2023-05-07T21:20:06.726Z,9.50
2023-05-07T21:22:33.870Z,5.50
2023-05-07T21:25:01.615Z,7.28
2023-05-07T21:27:29.308Z,7.13
2023-05-07T21:30:03.295Z,8.13
2023-05-07T21:32:33.946Z,7.53
2023-05-07T21:35:01.843Z,8.70
2023-05-07T21:37:28.782Z,11.68
2023-05-07T21:39:56.347Z,11.98
2023-05-07T21:42:23.644Z,12.50
2023-05-07T21:44:51.033Z,12.00
2023-05-07T21:47:18.168Z,10.23
2023-05-07T21:49:45.197Z,10.23
2023-05-07T21:52:17.020Z,12.73
2023-05-07T21:54:44.052Z,13.40
2023-05-07T21:57:11.010Z,11.65
2023-05-07T21:59:38.245Z,14.43
2023-05-07T22:02:05.795Z,10.38
2023-05-07T22:04:35.757Z,10.27
2023-05-07T22:07:02.718Z,10.52
2023-05-07T22:09:32.578Z,10.75
2023-05-07T22:11:59.496Z,9.82
2023-05-07T22:14:26.728Z,11.88
2023-05-07T22:16:53.800Z,12.80
2023-05-07T22:19:21.402Z,10.07
2023-05-07T22:21:48.387Z,11.18
2023-05-07T22:24:15.861Z,10.13
2023-05-07T22:26:42.785Z,9.52
2023-05-07T22:29:09.790Z,8.98
2023-05-07T22:31:36.777Z,12.63
2023-05-07T22:34:03.746Z,10.98
2023-05-07T22:36:31.027Z,12.70
2023-05-07T22:38:58.130Z,15.27
2023-05-07T22:41:25.166Z,14.05
2023-05-07T22:43:52.176Z,16.80
2023-05-07T22:46:19.878Z,14.70
2023-05-07T22:48:47.007Z,13.80
2023-05-07T22:51:14.771Z,17.13
2023-05-07T22:53:41.892Z,12.88
2023-05-07T22:56:09.634Z,13.18
2023-05-07T22:58:36.600Z,13.57
2023-05-07T23:01:03.782Z,13.95
2023-05-07T23:03:30.838Z,14.30
2023-05-07T23:05:58.216Z,15.90
2023-05-07T23:08:25.258Z,16.52
2023-05-07T23:10:52.209Z,20.67
2023-05-07T23:13:19.300Z,18.67
2023-05-07T23:15:46.442Z,16.70
2023-05-07T23:18:13.443Z,16.20
2023-05-07T23:20:41.332Z,20.95
2023-05-07T23:23:08.512Z,20.85
2023-05-07T23:25:35.717Z,21.52
2023-05-07T23:28:03.011Z,18.75
2023-05-07T23:30:30.052Z,18.00
2023-05-07T23:32:57.045Z,16.35
2023-05-07T23:35:23.963Z,18.63
2023-05-07T23:37:51.028Z,22.63
2023-05-07T23:40:18.006Z,23.48
2023-05-07T23:42:45.036Z,21.08
2023-05-07T23:45:13.440Z,20.30
2023-05-07T23:47:40.761Z,21.80
2023-05-07T23:50:08.017Z,18.77
2023-05-07T23:52:35.258Z,19.38
2023-05-07T23:55:02.233Z,20.40
2023-05-07T23:57:29.217Z,25.88
2023-05-07T23:59:56.257Z,22.45
